Flight Track Log - Related Links

Times and Time Zones

All times are in EDT time to prevent confusion due to time zone crossing. See the SWA385 flight status page for this flight to view local times or setup timezone preferences in your user account.

Time Position Orientation Groundspeed Altitude Reporting Facility
EDT Latitude Longitude Course Direction KTS MPH feet Rate Location/Type
Fri 10:22:50 AM 29.6306 -95.2608 34° Northeast 138 159 1,100  Level Houston Center
Fri 10:23:40 AM 29.6561 -95.2408 34° Northeast 194 223 2,200 1,622 Climbing Houston Center
Fri 10:24:04 AM 29.6686 -95.2678 298° West 214 246 3,100 2,149 Climbing Houston Center
Fri 10:24:47 AM 29.6861 -95.3167 292° West 248 285 4,600 2,129 Climbing Houston Center
Fri 10:25:06 AM 29.6931 -95.3364 292° West 235 270 5,300 3,107 Climbing Houston Center
Fri 10:25:43 AM 29.7014 -95.3894 280° West 261 300 7,500 3,429 Climbing Houston Center
Fri 10:26:09 AM 29.7078 -95.4153 286° West 252 290 8,900 3,091 Climbing Houston Center
Fri 10:26:49 AM 29.7194 -95.4739 283° West 255 293 10,900 2,129 Climbing Houston Center
Fri 10:27:11 AM 29.7244 -95.4961 285° West 259 298 11,100 1,929 Climbing Houston Center
Fri 10:28:13 AM 29.7542 -95.5967 289° West 325 374 13,600 3,097 Climbing Houston Center
Fri 10:29:15 AM 29.7900 -95.7214 288° West 340 391 17,500 3,194 Climbing Houston Center
Fri 10:30:17 AM 29.8103 -95.8258 283° West 336 387 20,200 2,226 Climbing Houston Center
Fri 10:31:19 AM 29.8328 -95.9347 283° West 348 400 22,100 1,887 Climbing Houston Center
Fri 10:32:21 AM 29.8586 -96.0533 284° West 366 421 24,100 1,984 Climbing Houston Center
Fri 10:33:23 AM 29.8831 -96.1689 284° West 372 428 26,200 1,824 Climbing Houston Center
Fri 10:34:26 AM 29.9072 -96.2850 284° West 375 432 27,900 1,824 Climbing Houston Center
Fri 10:35:28 AM 29.9386 -96.4269 284° West 383 441 30,000 1,839 Climbing Houston Center
Fri 10:36:30 AM 29.9611 -96.5456 282° West 381 438 31,700 1,597 Climbing Houston Center
Fri 10:37:32 AM 29.9864 -96.6603 284° West 375 432 33,300 1,403 Climbing Houston Center
Fri 10:38:34 AM 30.0089 -96.7772 283° West 375 432 34,600 1,113 Climbing Houston Center
Fri 10:39:36 AM 30.0344 -96.8931 284° West 376 433 35,600 960 Climbing Houston Center
Fri 10:40:39 AM 30.0628 -97.0358 283° West 384 442 36,600 816 Climbing Houston Center
Fri 10:41:41 AM 30.0875 -97.1567 283° West 388 447 37,300 677 Climbing Houston Center
Fri 10:42:43 AM 30.1133 -97.2875 283° West 400 460 38,000 339 Climbing Houston Center
Fri 10:43:45 AM 30.1400 -97.4156 284° West 405 466 38,000  Level Houston Center
Fri 10:44:47 AM 30.1656 -97.5444 283° West 406 467 38,000  Level Houston Center
Fri 10:45:49 AM 30.1906 -97.6722 283° West 403 464 38,000  Level Houston Center
Fri 10:46:51 AM 30.2158 -97.7989 283° West 401 461 38,000  Level Houston Center
Fri 10:47:53 AM 30.2450 -97.9447 283° West 402 463 38,000  Level Houston Center
Fri 10:48:56 AM 30.2717 -98.0825 283° West 407 468 38,000  Level Houston Center
Fri 10:49:58 AM 30.2972 -98.2119 283° West 414 476 38,000  Level Houston Center
Fri 10:51:00 AM 30.3217 -98.3403 282° West 413 475 38,000  Level Houston Center
Fri 10:52:02 AM 30.3456 -98.4711 282° West 411 473 38,000  Level Houston Center
Fri 10:53:04 AM 30.3719 -98.6033 283° West 415 478 38,000  Level Houston Center
Fri 10:54:06 AM 30.3958 -98.7333 282° West 411 473 38,000  Level Houston Center
Fri 10:55:08 AM 30.4206 -98.8631 282° West 409 471 38,000  Level Houston Center
Fri 10:56:10 AM 30.4503 -99.0158 283° West 410 472 38,000  Level Houston Center
Fri 10:57:13 AM 30.4714 -99.1297 282° West 410 472 38,000  Level Houston Center
Fri 10:58:15 AM 30.4958 -99.2581 282° West 409 471 38,000  Level Houston Center
Fri 10:59:17 AM 30.5244 -99.4122 282° West 409 471 38,000  Level Houston Center
Fri 11:00:19 AM 30.5481 -99.5414 282° West 411 473 38,000  Level Houston Center
Fri 11:01:21 AM 30.5756 -99.6678 284° West 407 468 38,000  Level Houston Center
Fri 11:02:23 AM 30.6036 -99.7953 284° West 411 473 38,000  Level Houston Center
Fri 11:03:25 AM 30.6306 -99.9231 284° West 409 471 38,000  Level Houston Center
Fri 11:04:27 AM 30.6636 -100.0772 284° West 413 475 38,000  Level Houston Center
Fri 11:05:30 AM 30.6903 -100.2061 284° West 414 476 38,000  Level Houston Center
Fri 11:06:32 AM 30.7172 -100.3353 284° West 415 478 38,000  Level Houston Center
Fri 11:07:34 AM 30.7439 -100.4647 284° West 415 478 38,000  Level Houston Center
Fri 11:08:36 AM 30.7719 -100.5931 284° West 414 476 38,000  Level Houston Center
Fri 11:09:38 AM 30.8031 -100.7483 283° West 414 476 38,000  Level Houston Center
Fri 11:10:40 AM 30.8297 -100.8781 283° West 413 475 38,000  Level Houston Center
Fri 11:11:42 AM 30.8569 -101.0089 284° West 417 480 38,000  Level Houston Center
Fri 11:12:44 AM 30.8833 -101.1392 283° West 417 480 38,000  Level Houston Center
Fri 11:13:46 AM 30.9103 -101.2697 284° West 417 480 38,000  Level Houston Center
Fri 11:14:48 AM 30.9411 -101.4278 283° West 419 482 38,000  Level Houston Center
Fri 11:15:51 AM 30.9669 -101.5603 283° West 420 483 38,000  Level Houston Center
Fri 11:16:53 AM 30.9950 -101.6931 284° West 420 483 38,000  Level Houston Center
Fri 11:17:55 AM 31.0208 -101.8261 283° West 421 484 38,000  Level Houston Center
Fri 11:18:57 AM 31.0472 -101.9578 283° West 419 482 38,000  Level Houston Center
Fri 11:19:59 AM 31.0728 -102.0911 283° West 419 482 38,000 -48 Level Houston Center
Fri 11:21:01 AM 31.0978 -102.2250 282° West 418 481 37,900  Descending Houston Center
Fri 11:22:03 AM 31.1283 -102.3867 282° West 419 482 38,000 60 Climbing Houston Center
Fri 11:22:41 AM 31.1408 -102.4464 284° West 416 479 38,000  Level Albuquerque Center
Fri 11:23:43 AM 31.1694 -102.6008 282° West 413 475 38,000  Level Albuquerque Center
Fri 11:24:45 AM 31.1950 -102.7333 283° West 415 478 38,000  Level Albuquerque Center
Fri 11:25:47 AM 31.2206 -102.8664 283° West 417 480 38,000  Level Albuquerque Center
Fri 11:26:50 AM 31.2444 -102.9981 282° West 417 480 38,000  Level Albuquerque Center
Fri 11:27:52 AM 31.2689 -103.1297 282° West 416 479 38,000  Level Albuquerque Center
Fri 11:28:54 AM 31.2992 -103.2889 283° West 417 480 38,000  Level Albuquerque Center
Fri 11:29:56 AM 31.3228 -103.4203 282° West 415 478 38,000  Level Albuquerque Center
Fri 11:30:58 AM 31.3478 -103.5539 282° West 419 482 38,000  Level Albuquerque Center
Fri 11:32:00 AM 31.3703 -103.6850 281° West 415 478 38,000  Level Albuquerque Center
Fri 11:33:02 AM 31.3967 -103.8331 282° West 415 478 38,000  Level Albuquerque Center
Fri 11:34:04 AM 31.4217 -103.9650 283° West 416 479 38,000  Level Albuquerque Center
Fri 11:35:06 AM 31.4461 -104.0967 282° West 416 479 38,000  Level Albuquerque Center
Fri 11:36:08 AM 31.4700 -104.2278 282° West 415 478 38,000  Level Albuquerque Center
Fri 11:37:10 AM 31.4931 -104.3594 282° West 415 478 38,000  Level Albuquerque Center
Fri 11:38:12 AM 31.5206 -104.5186 281° West 417 480 38,000  Level Albuquerque Center
Fri 11:39:14 AM 31.5447 -104.6514 282° West 419 482 38,000  Level Albuquerque Center
Fri 11:40:16 AM 31.5681 -104.7850 282° West 421 484 38,000  Level Albuquerque Center
Fri 11:41:18 AM 31.5903 -104.9161 281° West 416 479 38,000  Level Albuquerque Center
Fri 11:42:20 AM 31.6128 -105.0497 281° West 419 482 38,000  Level Albuquerque Center
Fri 11:43:22 AM 31.6358 -105.1808 282° West 415 478 38,000  Level Albuquerque Center
Fri 11:44:24 AM 31.6622 -105.3419 281° West 421 484 38,000  Level Albuquerque Center
Fri 11:45:26 AM 31.6839 -105.4794 281° West 428 493 38,000  Level Albuquerque Center
Fri 11:46:29 AM 31.7072 -105.6136 282° West 425 489 38,000  Level Albuquerque Center
Fri 11:47:31 AM 31.7303 -105.7508 281° West 428 493 38,000  Level Albuquerque Center
Fri 11:48:33 AM 31.7522 -105.8869 281° West 428 493 38,000  Level Albuquerque Center
Fri 11:49:35 AM 31.7792 -106.0494 281° West 425 489 38,000  Level Albuquerque Center
Fri 11:50:37 AM 31.8006 -106.1825 281° West 419 482 38,000  Level Albuquerque Center
Fri 11:51:39 AM 31.8231 -106.3156 281° West 417 480 38,000  Level Albuquerque Center
Fri 11:52:41 AM 31.8450 -106.4492 281° West 417 480 38,000  Level Albuquerque Center
Fri 11:53:43 AM 31.8664 -106.5814 281° West 417 480 38,000  Level Albuquerque Center
Fri 11:54:45 AM 31.8928 -106.7411 281° West 415 478 38,000  Level Albuquerque Center
Fri 11:55:47 AM 31.9139 -106.8758 280° West 416 479 38,000  Level Albuquerque Center
Fri 11:56:49 AM 31.9356 -107.0117 281° West 418 481 38,000  Level Albuquerque Center
Fri 11:57:51 AM 31.9564 -107.1494 280° West 423 487 38,000  Level Albuquerque Center
Fri 11:58:53 AM 31.9775 -107.2875 280° West 426 490 38,000  Level Albuquerque Center
Fri 11:59:55 AM 31.9986 -107.4250 280° West 426 490 38,000  Level Albuquerque Center
Fri 12:00:57 PM 32.0200 -107.5622 280° West 425 489 38,000  Level Albuquerque Center
Fri 12:01:59 PM 32.0456 -107.7281 280° West 427 491 38,000  Level Albuquerque Center
Fri 12:03:01 PM 32.0656 -107.8661 280° West 427 491 38,000  Level Albuquerque Center
Fri 12:04:03 PM 32.0864 -108.0047 280° West 428 493 38,000  Level Albuquerque Center
Fri 12:05:05 PM 32.1069 -108.1397 280° West 423 487 38,000  Level Albuquerque Center
Fri 12:06:08 PM 32.1278 -108.2778 280° West 425 489 38,000  Level Albuquerque Center
Fri 12:07:10 PM 32.1469 -108.4147 279° West 424 488 38,000  Level Albuquerque Center
Fri 12:08:12 PM 32.1706 -108.5717 280° West 424 488 38,000  Level Albuquerque Center
Fri 12:09:14 PM 32.1897 -108.7094 279° West 424 488 38,000  Level Albuquerque Center
Fri 12:10:16 PM 32.2092 -108.8475 279° West 425 489 38,000  Level Albuquerque Center
Fri 12:11:18 PM 32.2014 -108.9878 266° West 431 496 38,000  Level Albuquerque Center
Fri 12:12:20 PM 32.1908 -109.1286 265° West 429 494 38,000 -339 Level Albuquerque Center
Fri 12:13:22 PM 32.1811 -109.2700 265° West 430 495 37,300 -871 Descending Albuquerque Center
Fri 12:14:24 PM 32.1692 -109.4397 265° West 431 496 36,200 -1,016 Descending Albuquerque Center
Fri 12:15:26 PM 32.2131 -109.5781 291° West 460 529 35,200 -919 Descending Albuquerque Center
Fri 12:16:28 PM 32.2614 -109.7103 293° West 446 513 34,300 -581 Descending Albuquerque Center
Fri 12:17:30 PM 32.3114 -109.8431 294° West 442 509 34,000 -145 Descending Albuquerque Center
Fri 12:18:32 PM 32.3603 -109.9764 293° West 442 509 34,000 -871 Level Albuquerque Center
Fri 12:19:34 PM 32.4131 -110.1139 294° West 454 522 32,200 -2,081 Descending Albuquerque Center
Fri 12:20:36 PM 32.4731 -110.2753 294° West 449 517 29,700 -2,323 Descending Albuquerque Center
Fri 12:21:38 PM 32.5131 -110.3844 294° West 436 502 27,400 -2,323 Descending Albuquerque Center
Fri 12:22:40 PM 32.5669 -110.5314 294° West 411 473 24,900 -1,645 Descending Albuquerque Center
Fri 12:23:42 PM 32.6156 -110.6444 297° West 391 450 24,000 -435 Descending Albuquerque Center
Fri 12:24:44 PM 32.6747 -110.7514 303° West 387 445 24,000 -144 Level Albuquerque Center
Fri 12:25:47 PM 32.7331 -110.8586 303° West 387 445 23,700 -1,104 Descending Albuquerque Center
Fri 12:26:49 PM 32.7894 -110.9642 302° West 382 440 21,700 -1,935 Descending Albuquerque Center
Fri 12:27:51 PM 32.8436 -111.0675 302° West 373 429 19,700 -1,790 Descending Albuquerque Center
Fri 12:28:53 PM 32.9025 -111.1894 300° West 357 411 18,000 -1,597 Descending Albuquerque Center
Fri 12:29:55 PM 32.9481 -111.2817 301° West 328 377 16,400 -1,500 Descending Albuquerque Center
Fri 12:30:57 PM 32.9917 -111.3808 298° West 336 387 14,900 -1,355 Descending Albuquerque Center
Fri 12:31:59 PM 33.0358 -111.4708 300° West 318 366 13,600 -1,403 Descending Albuquerque Center
Fri 12:33:01 PM 33.0800 -111.5550 302° West 302 348 12,000 -774 Descending Albuquerque Center
Fri 12:34:03 PM 33.1217 -111.6372 301° West 292 336 12,000 -435 Level Albuquerque Center
Fri 12:35:05 PM 33.1614 -111.7167 301° West 281 323 11,100 -968 Descending Albuquerque Center
Fri 12:36:07 PM 33.2094 -111.8114 301° West 278 320 10,000 -823 Descending Albuquerque Center
Fri 12:37:09 PM 33.2494 -111.8906 301° West 278 320 9,400 -581 Descending Albuquerque Center
Fri 12:38:11 PM 33.2850 -111.9600 302° West 252 290 8,800 -823 Descending Albuquerque Center
Fri 12:39:13 PM 33.3189 -112.0261 302° West 235 270 7,700 -1,065 Descending Albuquerque Center
Fri 12:40:15 PM 33.3433 -112.0969 292° West 240 276 6,600 -1,016 Descending Albuquerque Center
Fri 12:41:17 PM 33.3431 -112.1756 270° West 237 273 5,600 -919 Descending Albuquerque Center
Fri 12:42:19 PM 33.3983 -112.2033 337° Northwest 199 229 4,700 -1,016 Descending Albuquerque Center
Fri 12:43:21 PM 33.4275 -112.1697 44° Northeast 165 190 3,500 -1,008 Descending Albuquerque Center
Fri 12:44:24 PM 33.4286 -112.1186 88° East 157 181 2,600 -768 Descending Albuquerque Center
Fri 12:45:26 PM 33.4292 -112.0739 89° East 140 161 1,900 -677 Descending Albuquerque Center
Fri 12:46:28 PM 33.4292 -112.0286 90° East 136 157 1,200 -677 Descending Albuquerque Center

Login

Don't have an account? Register now (free) for customized features, flight alerts, and more!